sensor_id;sensor_type;location;lat;lon;timestamp;P1;durP1;ratioP1;P2;durP2;ratioP2
62572;SDS011;48626;51.678;5.806;2022-08-01T00:00:27;24.85;;;14.20;;
62572;SDS011;48626;51.678;5.806;2022-08-01T00:02:53;27.15;;;14.07;;
62572;SDS011;48626;51.678;5.806;2022-08-01T00:05:19;23.13;;;13.38;;
62572;SDS011;48626;51.678;5.806;2022-08-01T00:07:44;29.98;;;13.63;;
62572;SDS011;48626;51.678;5.806;2022-08-01T00:10:11;23.83;;;14.25;;
62572;SDS011;48626;51.678;5.806;2022-08-01T00:12:39;28.95;;;14.88;;
62572;SDS011;48626;51.678;5.806;2022-08-01T00:15:06;25.30;;;14.05;;
62572;SDS011;48626;51.678;5.806;2022-08-01T00:17:33;32.63;;;14.20;;
62572;SDS011;48626;51.678;5.806;2022-08-01T00:19:59;27.45;;;13.30;;
62572;SDS011;48626;51.678;5.806;2022-08-01T00:22:25;29.00;;;14.68;;
62572;SDS011;48626;51.678;5.806;2022-08-01T00:24:51;28.92;;;13.90;;
62572;SDS011;48626;51.678;5.806;2022-08-01T00:27:17;28.50;;;14.82;;
62572;SDS011;48626;51.678;5.806;2022-08-01T00:29:42;27.70;;;14.68;;
62572;SDS011;48626;51.678;5.806;2022-08-01T00:32:08;30.98;;;14.45;;
62572;SDS011;48626;51.678;5.806;2022-08-01T00:34:34;28.40;;;15.15;;
62572;SDS011;48626;51.678;5.806;2022-08-01T00:36:59;36.75;;;16.05;;
62572;SDS011;48626;51.678;5.806;2022-08-01T00:39:25;30.70;;;15.88;;
62572;SDS011;48626;51.678;5.806;2022-08-01T00:41:50;32.90;;;16.10;;
62572;SDS011;48626;51.678;5.806;2022-08-01T00:44:16;37.13;;;15.20;;
62572;SDS011;48626;51.678;5.806;2022-08-01T00:46:42;30.90;;;16.48;;
62572;SDS011;48626;51.678;5.806;2022-08-01T00:49:07;30.25;;;15.98;;
62572;SDS011;48626;51.678;5.806;2022-08-01T00:51:33;36.55;;;16.20;;
62572;SDS011;48626;51.678;5.806;2022-08-01T00:53:59;24.60;;;15.02;;
62572;SDS011;48626;51.678;5.806;2022-08-01T00:56:25;31.98;;;14.95;;
62572;SDS011;48626;51.678;5.806;2022-08-01T00:58:52;34.83;;;15.60;;
62572;SDS011;48626;51.678;5.806;2022-08-01T01:01:18;23.15;;;15.05;;
62572;SDS011;48626;51.678;5.806;2022-08-01T01:03:46;27.17;;;14.25;;
62572;SDS011;48626;51.678;5.806;2022-08-01T01:11:48;19.20;;;11.18;;
62572;SDS011;48626;51.678;5.806;2022-08-01T01:14:53;22.52;;;11.50;;
62572;SDS011;48626;51.678;5.806;2022-08-01T01:17:37;16.67;;;10.27;;
62572;SDS011;48626;51.678;5.806;2022-08-01T01:20:06;20.50;;;10.32;;
62572;SDS011;48626;51.678;5.806;2022-08-01T01:28:35;19.50;;;10.75;;
62572;SDS011;48626;51.678;5.806;2022-08-01T01:31:37;20.48;;;10.05;;
62572;SDS011;48626;51.678;5.806;2022-08-01T01:34:09;17.90;;;10.43;;
62572;SDS011;48626;51.678;5.806;2022-08-01T01:36:37;17.90;;;10.30;;
62572;SDS011;48626;51.678;5.806;2022-08-01T01:39:04;18.70;;;9.77;;
62572;SDS011;48626;51.678;5.806;2022-08-01T01:41:32;16.90;;;10.20;;
62572;SDS011;48626;51.678;5.806;2022-08-01T01:44:00;14.65;;;9.52;;
62572;SDS011;48626;51.678;5.806;2022-08-01T01:46:27;23.52;;;10.48;;
62572;SDS011;48626;51.678;5.806;2022-08-01T01:48:55;17.88;;;10.18;;
62572;SDS011;48626;51.678;5.806;2022-08-01T01:51:22;23.60;;;10.63;;
62572;SDS011;48626;51.678;5.806;2022-08-01T01:53:49;18.75;;;10.25;;
62572;SDS011;48626;51.678;5.806;2022-08-01T01:56:17;21.02;;;10.38;;
62572;SDS011;48626;51.678;5.806;2022-08-01T01:58:44;19.30;;;10.35;;
62572;SDS011;48626;51.678;5.806;2022-08-01T02:01:13;17.98;;;10.27;;
62572;SDS011;48626;51.678;5.806;2022-08-01T02:03:40;18.92;;;10.73;;
62572;SDS011;48626;51.678;5.806;2022-08-01T02:06:08;19.45;;;10.20;;
62572;SDS011;48626;51.678;5.806;2022-08-01T02:08:34;17.83;;;10.25;;
62572;SDS011;48626;51.678;5.806;2022-08-01T02:11:03;21.45;;;11.02;;
62572;SDS011;48626;51.678;5.806;2022-08-01T02:13:44;20.30;;;10.63;;
62572;SDS011;48626;51.678;5.806;2022-08-01T02:16:21;18.75;;;10.25;;
62572;SDS011;48626;51.678;5.806;2022-08-01T02:18:49;23.10;;;10.23;;
62572;SDS011;48626;51.678;5.806;2022-08-01T02:21:16;19.05;;;9.95;;
62572;SDS011;48626;51.678;5.806;2022-08-01T02:26:52;17.15;;;10.25;;
62572;SDS011;48626;51.678;5.806;2022-08-01T02:29:22;20.73;;;11.13;;
62572;SDS011;48626;51.678;5.806;2022-08-01T02:31:53;23.40;;;10.43;;
62572;SDS011;48626;51.678;5.806;2022-08-01T02:34:20;24.27;;;11.40;;
62572;SDS011;48626;51.678;5.806;2022-08-01T02:36:47;17.10;;;10.18;;
62572;SDS011;48626;51.678;5.806;2022-08-01T02:39:15;21.42;;;10.13;;
62572;SDS011;48626;51.678;5.806;2022-08-01T02:41:45;18.00;;;10.40;;
62572;SDS011;48626;51.678;5.806;2022-08-01T02:46:51;22.60;;;10.75;;
62572;SDS011;48626;51.678;5.806;2022-08-01T02:49:21;22.75;;;10.70;;
62572;SDS011;48626;51.678;5.806;2022-08-01T02:51:48;18.20;;;10.40;;
62572;SDS011;48626;51.678;5.806;2022-08-01T02:54:17;21.00;;;10.88;;
62572;SDS011;48626;51.678;5.806;2022-08-01T02:59:12;21.30;;;10.95;;
62572;SDS011;48626;51.678;5.806;2022-08-01T03:01:40;19.25;;;9.90;;
62572;SDS011;48626;51.678;5.806;2022-08-01T03:04:09;28.60;;;10.82;;
62572;SDS011;48626;51.678;5.806;2022-08-01T03:06:36;24.27;;;10.88;;
62572;SDS011;48626;51.678;5.806;2022-08-01T03:09:03;20.23;;;10.77;;
62572;SDS011;48626;51.678;5.806;2022-08-01T03:11:31;24.30;;;10.75;;
62572;SDS011;48626;51.678;5.806;2022-08-01T03:13:59;19.20;;;10.57;;
62572;SDS011;48626;51.678;5.806;2022-08-01T03:16:27;22.17;;;10.75;;
62572;SDS011;48626;51.678;5.806;2022-08-01T03:18:53;24.63;;;10.15;;
62572;SDS011;48626;51.678;5.806;2022-08-01T03:21:21;23.20;;;10.40;;
62572;SDS011;48626;51.678;5.806;2022-08-01T03:23:48;19.58;;;10.80;;
62572;SDS011;48626;51.678;5.806;2022-08-01T03:26:16;20.52;;;10.27;;
62572;SDS011;48626;51.678;5.806;2022-08-01T03:28:44;21.02;;;11.18;;
62572;SDS011;48626;51.678;5.806;2022-08-01T03:33:39;20.40;;;10.43;;
62572;SDS011;48626;51.678;5.806;2022-08-01T03:36:05;22.30;;;10.95;;
62572;SDS011;48626;51.678;5.806;2022-08-01T03:38:34;23.07;;;11.30;;
62572;SDS011;48626;51.678;5.806;2022-08-01T03:41:14;22.58;;;11.75;;
62572;SDS011;48626;51.678;5.806;2022-08-01T03:43:45;28.50;;;12.83;;
62572;SDS011;48626;51.678;5.806;2022-08-01T03:46:17;24.90;;;13.25;;
62572;SDS011;48626;51.678;5.806;2022-08-01T03:48:47;25.83;;;12.50;;
62572;SDS011;48626;51.678;5.806;2022-08-01T03:51:14;25.13;;;13.02;;
62572;SDS011;48626;51.678;5.806;2022-08-01T03:53:42;23.08;;;12.32;;
62572;SDS011;48626;51.678;5.806;2022-08-01T03:56:10;25.15;;;13.52;;
62572;SDS011;48626;51.678;5.806;2022-08-01T03:58:41;28.33;;;13.13;;
62572;SDS011;48626;51.678;5.806;2022-08-01T04:01:07;25.75;;;13.05;;
62572;SDS011;48626;51.678;5.806;2022-08-01T04:03:34;27.83;;;13.35;;
62572;SDS011;48626;51.678;5.806;2022-08-01T04:06:03;27.60;;;13.68;;
62572;SDS011;48626;51.678;5.806;2022-08-01T04:08:36;28.63;;;13.82;;
62572;SDS011;48626;51.678;5.806;2022-08-01T04:11:03;27.85;;;14.82;;
62572;SDS011;48626;51.678;5.806;2022-08-01T04:13:30;25.05;;;13.50;;
62572;SDS011;48626;51.678;5.806;2022-08-01T04:15:56;29.90;;;14.48;;
62572;SDS011;48626;51.678;5.806;2022-08-01T04:18:21;25.83;;;13.77;;
62572;SDS011;48626;51.678;5.806;2022-08-01T04:20:47;27.20;;;14.65;;
62572;SDS011;48626;51.678;5.806;2022-08-01T04:23:13;32.70;;;14.60;;
62572;SDS011;48626;51.678;5.806;2022-08-01T04:25:42;27.10;;;13.93;;
62572;SDS011;48626;51.678;5.806;2022-08-01T04:28:10;28.95;;;15.68;;
62572;SDS011;48626;51.678;5.806;2022-08-01T04:30:41;34.78;;;16.05;;
62572;SDS011;48626;51.678;5.806;2022-08-01T04:33:09;28.65;;;14.48;;
62572;SDS011;48626;51.678;5.806;2022-08-01T04:35:41;28.75;;;14.77;;
62572;SDS011;48626;51.678;5.806;2022-08-01T04:38:10;33.50;;;15.33;;
62572;SDS011;48626;51.678;5.806;2022-08-01T04:40:42;28.85;;;14.38;;
62572;SDS011;48626;51.678;5.806;2022-08-01T04:43:10;24.58;;;13.57;;
62572;SDS011;48626;51.678;5.806;2022-08-01T04:45:36;28.13;;;13.90;;
62572;SDS011;48626;51.678;5.806;2022-08-01T04:48:04;28.42;;;13.70;;
62572;SDS011;48626;51.678;5.806;2022-08-01T04:50:31;27.95;;;12.98;;
62572;SDS011;48626;51.678;5.806;2022-08-01T04:52:57;27.98;;;13.05;;
62572;SDS011;48626;51.678;5.806;2022-08-01T04:55:23;30.80;;;14.30;;
62572;SDS011;48626;51.678;5.806;2022-08-01T04:57:48;25.80;;;13.60;;
62572;SDS011;48626;51.678;5.806;2022-08-01T05:00:14;30.08;;;14.63;;
62572;SDS011;48626;51.678;5.806;2022-08-01T05:02:41;31.92;;;13.95;;
62572;SDS011;48626;51.678;5.806;2022-08-01T05:05:07;33.85;;;13.98;;
62572;SDS011;48626;51.678;5.806;2022-08-01T05:07:33;26.33;;;13.13;;
62572;SDS011;48626;51.678;5.806;2022-08-01T05:10:01;29.80;;;12.95;;
62572;SDS011;48626;51.678;5.806;2022-08-01T05:12:28;31.02;;;14.63;;
62572;SDS011;48626;51.678;5.806;2022-08-01T05:14:54;33.92;;;14.45;;
62572;SDS011;48626;51.678;5.806;2022-08-01T05:17:19;29.52;;;13.93;;
62572;SDS011;48626;51.678;5.806;2022-08-01T05:19:45;34.47;;;15.65;;
62572;SDS011;48626;51.678;5.806;2022-08-01T05:22:11;33.97;;;14.73;;
62572;SDS011;48626;51.678;5.806;2022-08-01T05:24:38;34.25;;;16.45;;
62572;SDS011;48626;51.678;5.806;2022-08-01T05:27:04;32.40;;;14.50;;
62572;SDS011;48626;51.678;5.806;2022-08-01T05:29:32;35.90;;;15.45;;
62572;SDS011;48626;51.678;5.806;2022-08-01T05:31:58;29.60;;;14.43;;
62572;SDS011;48626;51.678;5.806;2022-08-01T05:34:24;34.90;;;14.80;;
62572;SDS011;48626;51.678;5.806;2022-08-01T05:36:51;33.40;;;13.73;;
62572;SDS011;48626;51.678;5.806;2022-08-01T05:39:16;32.08;;;14.65;;
62572;SDS011;48626;51.678;5.806;2022-08-01T05:41:42;30.70;;;13.95;;
62572;SDS011;48626;51.678;5.806;2022-08-01T05:44:08;29.58;;;14.00;;
62572;SDS011;48626;51.678;5.806;2022-08-01T05:46:34;28.83;;;14.40;;
62572;SDS011;48626;51.678;5.806;2022-08-01T05:49:01;28.55;;;13.48;;
62572;SDS011;48626;51.678;5.806;2022-08-01T05:51:28;25.15;;;13.85;;
62572;SDS011;48626;51.678;5.806;2022-08-01T05:53:54;29.42;;;14.52;;
62572;SDS011;48626;51.678;5.806;2022-08-01T05:56:20;30.30;;;15.13;;
62572;SDS011;48626;51.678;5.806;2022-08-01T05:58:46;31.60;;;15.35;;
62572;SDS011;48626;51.678;5.806;2022-08-01T06:01:12;26.38;;;14.80;;
62572;SDS011;48626;51.678;5.806;2022-08-01T06:03:38;26.20;;;14.13;;
62572;SDS011;48626;51.678;5.806;2022-08-01T06:06:03;27.20;;;15.50;;
62572;SDS011;48626;51.678;5.806;2022-08-01T06:08:29;25.42;;;14.50;;
62572;SDS011;48626;51.678;5.806;2022-08-01T06:10:55;27.65;;;15.77;;
62572;SDS011;48626;51.678;5.806;2022-08-01T06:13:21;27.42;;;15.63;;
62572;SDS011;48626;51.678;5.806;2022-08-01T06:15:47;22.83;;;14.73;;
62572;SDS011;48626;51.678;5.806;2022-08-01T06:18:13;30.45;;;15.68;;
62572;SDS011;48626;51.678;5.806;2022-08-01T06:20:39;26.38;;;15.73;;
62572;SDS011;48626;51.678;5.806;2022-08-01T06:23:05;23.70;;;15.05;;
62572;SDS011;48626;51.678;5.806;2022-08-01T06:25:31;26.17;;;15.82;;
62572;SDS011;48626;51.678;5.806;2022-08-01T06:27:58;28.88;;;16.00;;
62572;SDS011;48626;51.678;5.806;2022-08-01T06:30:24;26.77;;;16.35;;
62572;SDS011;48626;51.678;5.806;2022-08-01T06:32:49;25.27;;;16.42;;
62572;SDS011;48626;51.678;5.806;2022-08-01T06:35:15;27.92;;;16.17;;
62572;SDS011;48626;51.678;5.806;2022-08-01T06:37:41;30.88;;;16.25;;
62572;SDS011;48626;51.678;5.806;2022-08-01T06:40:08;24.90;;;14.82;;
62572;SDS011;48626;51.678;5.806;2022-08-01T06:42:35;22.00;;;14.32;;
62572;SDS011;48626;51.678;5.806;2022-08-01T06:45:05;22.63;;;15.05;;
62572;SDS011;48626;51.678;5.806;2022-08-01T06:47:31;23.88;;;15.00;;
62572;SDS011;48626;51.678;5.806;2022-08-01T06:49:57;22.33;;;14.82;;
62572;SDS011;48626;51.678;5.806;2022-08-01T06:52:23;21.35;;;13.23;;
62572;SDS011;48626;51.678;5.806;2022-08-01T06:54:48;19.80;;;12.10;;
62572;SDS011;48626;51.678;5.806;2022-08-01T06:57:14;19.02;;;13.48;;
62572;SDS011;48626;51.678;5.806;2022-08-01T06:59:40;21.65;;;13.27;;
62572;SDS011;48626;51.678;5.806;2022-08-01T07:02:06;20.63;;;12.45;;
62572;SDS011;48626;51.678;5.806;2022-08-01T07:04:32;20.13;;;12.63;;
62572;SDS011;48626;51.678;5.806;2022-08-01T07:06:58;19.10;;;12.77;;
62572;SDS011;48626;51.678;5.806;2022-08-01T07:09:24;17.08;;;11.35;;
62572;SDS011;48626;51.678;5.806;2022-08-01T07:11:50;18.35;;;11.88;;
62572;SDS011;48626;51.678;5.806;2022-08-01T07:14:17;16.83;;;11.43;;
62572;SDS011;48626;51.678;5.806;2022-08-01T07:16:43;12.98;;;8.13;;
62572;SDS011;48626;51.678;5.806;2022-08-01T07:19:09;14.75;;;8.77;;
62572;SDS011;48626;51.678;5.806;2022-08-01T07:21:35;14.77;;;8.70;;
62572;SDS011;48626;51.678;5.806;2022-08-01T07:24:01;12.40;;;8.43;;
62572;SDS011;48626;51.678;5.806;2022-08-01T07:26:27;9.73;;;6.90;;
62572;SDS011;48626;51.678;5.806;2022-08-01T07:28:52;9.52;;;6.55;;
62572;SDS011;48626;51.678;5.806;2022-08-01T07:31:19;9.20;;;6.25;;
62572;SDS011;48626;51.678;5.806;2022-08-01T07:33:44;9.50;;;5.70;;
62572;SDS011;48626;51.678;5.806;2022-08-01T07:36:10;9.52;;;6.00;;
62572;SDS011;48626;51.678;5.806;2022-08-01T07:38:36;8.32;;;5.53;;
62572;SDS011;48626;51.678;5.806;2022-08-01T07:41:02;10.38;;;5.57;;
62572;SDS011;48626;51.678;5.806;2022-08-01T07:43:28;8.25;;;5.38;;
62572;SDS011;48626;51.678;5.806;2022-08-01T07:45:54;8.10;;;5.88;;
62572;SDS011;48626;51.678;5.806;2022-08-01T07:48:19;8.40;;;5.93;;
62572;SDS011;48626;51.678;5.806;2022-08-01T07:50:49;11.18;;;7.65;;
62572;SDS011;48626;51.678;5.806;2022-08-01T07:53:17;9.05;;;6.55;;
62572;SDS011;48626;51.678;5.806;2022-08-01T07:55:43;10.60;;;6.70;;
62572;SDS011;48626;51.678;5.806;2022-08-01T07:58:08;13.70;;;6.95;;
62572;SDS011;48626;51.678;5.806;2022-08-01T08:00:34;9.02;;;5.82;;
62572;SDS011;48626;51.678;5.806;2022-08-01T08:03:00;11.55;;;6.15;;
62572;SDS011;48626;51.678;5.806;2022-08-01T08:05:26;8.00;;;5.97;;
62572;SDS011;48626;51.678;5.806;2022-08-01T08:07:52;8.90;;;5.95;;
62572;SDS011;48626;51.678;5.806;2022-08-01T08:10:18;11.25;;;6.53;;
62572;SDS011;48626;51.678;5.806;2022-08-01T08:12:43;8.25;;;5.22;;
62572;SDS011;48626;51.678;5.806;2022-08-01T08:15:11;9.35;;;4.93;;
62572;SDS011;48626;51.678;5.806;2022-08-01T08:17:37;7.65;;;4.57;;
62572;SDS011;48626;51.678;5.806;2022-08-01T08:20:05;7.03;;;4.30;;
62572;SDS011;48626;51.678;5.806;2022-08-01T08:22:32;7.20;;;4.40;;
62572;SDS011;48626;51.678;5.806;2022-08-01T08:24:57;6.55;;;4.13;;
62572;SDS011;48626;51.678;5.806;2022-08-01T08:27:23;7.10;;;4.40;;
62572;SDS011;48626;51.678;5.806;2022-08-01T08:29:49;4.88;;;3.50;;
62572;SDS011;48626;51.678;5.806;2022-08-01T08:32:15;5.10;;;3.05;;
62572;SDS011;48626;51.678;5.806;2022-08-01T08:34:40;5.35;;;2.80;;
62572;SDS011;48626;51.678;5.806;2022-08-01T08:37:06;4.55;;;2.42;;
62572;SDS011;48626;51.678;5.806;2022-08-01T08:39:32;3.15;;;2.40;;
62572;SDS011;48626;51.678;5.806;2022-08-01T08:42:01;3.60;;;2.33;;
62572;SDS011;48626;51.678;5.806;2022-08-01T08:44:30;2.45;;;2.10;;
62572;SDS011;48626;51.678;5.806;2022-08-01T08:46:56;4.95;;;3.10;;
62572;SDS011;48626;51.678;5.806;2022-08-01T08:49:26;7.38;;;2.60;;
62572;SDS011;48626;51.678;5.806;2022-08-01T08:51:53;4.72;;;2.50;;
62572;SDS011;48626;51.678;5.806;2022-08-01T08:54:26;3.85;;;2.40;;
62572;SDS011;48626;51.678;5.806;2022-08-01T08:56:53;4.97;;;2.65;;
62572;SDS011;48626;51.678;5.806;2022-08-01T08:59:20;3.92;;;2.60;;
62572;SDS011;48626;51.678;5.806;2022-08-01T09:01:46;3.88;;;2.53;;
62572;SDS011;48626;51.678;5.806;2022-08-01T09:04:12;3.95;;;2.80;;
62572;SDS011;48626;51.678;5.806;2022-08-01T09:06:38;3.20;;;2.15;;
62572;SDS011;48626;51.678;5.806;2022-08-01T09:09:05;2.85;;;1.90;;
62572;SDS011;48626;51.678;5.806;2022-08-01T09:11:32;3.55;;;1.85;;
62572;SDS011;48626;51.678;5.806;2022-08-01T09:14:32;2.63;;;1.83;;
62572;SDS011;48626;51.678;5.806;2022-08-01T09:17:05;2.80;;;1.88;;
62572;SDS011;48626;51.678;5.806;2022-08-01T09:22:04;4.47;;;1.80;;
62572;SDS011;48626;51.678;5.806;2022-08-01T09:24:32;3.03;;;2.05;;
62572;SDS011;48626;51.678;5.806;2022-08-01T09:26:58;2.80;;;2.20;;
62572;SDS011;48626;51.678;5.806;2022-08-01T09:29:25;3.85;;;2.13;;
62572;SDS011;48626;51.678;5.806;2022-08-01T09:31:56;3.47;;;2.00;;
62572;SDS011;48626;51.678;5.806;2022-08-01T09:34:30;2.60;;;1.85;;
62572;SDS011;48626;51.678;5.806;2022-08-01T09:37:00;2.05;;;1.80;;
62572;SDS011;48626;51.678;5.806;2022-08-01T09:39:31;1.90;;;1.70;;
62572;SDS011;48626;51.678;5.806;2022-08-01T09:42:26;7.10;;;3.05;;
62572;SDS011;48626;51.678;5.806;2022-08-01T09:44:53;6.38;;;2.20;;
62572;SDS011;48626;51.678;5.806;2022-08-01T09:47:19;3.20;;;1.90;;
62572;SDS011;48626;51.678;5.806;2022-08-01T09:49:52;4.18;;;2.40;;
62572;SDS011;48626;51.678;5.806;2022-08-01T09:52:20;3.53;;;2.35;;
62572;SDS011;48626;51.678;5.806;2022-08-01T09:55:06;2.50;;;1.80;;
62572;SDS011;48626;51.678;5.806;2022-08-01T09:57:32;3.15;;;1.90;;
62572;SDS011;48626;51.678;5.806;2022-08-01T09:59:58;2.85;;;1.80;;
62572;SDS011;48626;51.678;5.806;2022-08-01T10:04:58;2.80;;;1.80;;
62572;SDS011;48626;51.678;5.806;2022-08-01T10:07:24;4.75;;;1.88;;
62572;SDS011;48626;51.678;5.806;2022-08-01T10:09:50;2.95;;;1.90;;
62572;SDS011;48626;51.678;5.806;2022-08-01T10:12:17;6.03;;;2.00;;
62572;SDS011;48626;51.678;5.806;2022-08-01T10:14:45;3.70;;;2.28;;
62572;SDS011;48626;51.678;5.806;2022-08-01T10:19:41;5.00;;;3.00;;
62572;SDS011;48626;51.678;5.806;2022-08-01T10:22:09;5.43;;;2.58;;
62572;SDS011;48626;51.678;5.806;2022-08-01T10:24:36;5.07;;;2.80;;
62572;SDS011;48626;51.678;5.806;2022-08-01T10:27:05;3.73;;;1.90;;
62572;SDS011;48626;51.678;5.806;2022-08-01T10:29:35;4.07;;;2.60;;
62572;SDS011;48626;51.678;5.806;2022-08-01T10:32:11;3.47;;;2.10;;
62572;SDS011;48626;51.678;5.806;2022-08-01T10:34:36;3.50;;;2.30;;
62572;SDS011;48626;51.678;5.806;2022-08-01T10:37:06;2.50;;;1.83;;
62572;SDS011;48626;51.678;5.806;2022-08-01T10:39:32;4.07;;;2.13;;
62572;SDS011;48626;51.678;5.806;2022-08-01T10:41:59;5.32;;;2.20;;
62572;SDS011;48626;51.678;5.806;2022-08-01T10:44:26;4.70;;;2.40;;
62572;SDS011;48626;51.678;5.806;2022-08-01T10:47:15;4.20;;;2.30;;
62572;SDS011;48626;51.678;5.806;2022-08-01T10:52:19;2.90;;;1.98;;
62572;SDS011;48626;51.678;5.806;2022-08-01T10:54:45;5.03;;;1.90;;
62572;SDS011;48626;51.678;5.806;2022-08-01T10:57:11;2.88;;;1.80;;
62572;SDS011;48626;51.678;5.806;2022-08-01T10:59:51;4.03;;;1.80;;
62572;SDS011;48626;51.678;5.806;2022-08-01T11:02:27;2.37;;;1.90;;
62572;SDS011;48626;51.678;5.806;2022-08-01T11:04:55;2.40;;;1.80;;
62572;SDS011;48626;51.678;5.806;2022-08-01T11:07:21;2.90;;;1.70;;
62572;SDS011;48626;51.678;5.806;2022-08-01T11:10:03;2.25;;;1.83;;
62572;SDS011;48626;51.678;5.806;2022-08-01T11:12:39;5.70;;;2.15;;
62572;SDS011;48626;51.678;5.806;2022-08-01T11:17:34;4.82;;;2.00;;
62572;SDS011;48626;51.678;5.806;2022-08-01T11:22:29;4.78;;;2.00;;
62572;SDS011;48626;51.678;5.806;2022-08-01T11:24:55;2.67;;;1.80;;
62572;SDS011;48626;51.678;5.806;2022-08-01T11:27:25;3.27;;;1.60;;
62572;SDS011;48626;51.678;5.806;2022-08-01T11:32:48;2.33;;;1.60;;
62572;SDS011;48626;51.678;5.806;2022-08-01T11:35:13;4.50;;;1.80;;
62572;SDS011;48626;51.678;5.806;2022-08-01T11:37:40;5.13;;;1.98;;
62572;SDS011;48626;51.678;5.806;2022-08-01T11:40:27;4.43;;;1.80;;
62572;SDS011;48626;51.678;5.806;2022-08-01T11:45:54;6.28;;;1.90;;
62572;SDS011;48626;51.678;5.806;2022-08-01T11:48:21;8.35;;;1.92;;
62572;SDS011;48626;51.678;5.806;2022-08-01T11:50:55;6.45;;;1.90;;
62572;SDS011;48626;51.678;5.806;2022-08-01T11:53:21;5.47;;;2.00;;
62572;SDS011;48626;51.678;5.806;2022-08-01T11:55:51;5.22;;;2.17;;
62572;SDS011;48626;51.678;5.806;2022-08-01T11:58:22;4.05;;;2.20;;
62572;SDS011;48626;51.678;5.806;2022-08-01T12:00:52;4.22;;;2.15;;
62572;SDS011;48626;51.678;5.806;2022-08-01T12:03:25;3.63;;;2.05;;
62572;SDS011;48626;51.678;5.806;2022-08-01T12:05:55;3.17;;;1.77;;
62572;SDS011;48626;51.678;5.806;2022-08-01T12:08:25;2.70;;;1.80;;
62572;SDS011;48626;51.678;5.806;2022-08-01T12:10:51;3.70;;;1.80;;
62572;SDS011;48626;51.678;5.806;2022-08-01T12:13:18;4.95;;;2.10;;
62572;SDS011;48626;51.678;5.806;2022-08-01T12:15:45;4.85;;;2.30;;
62572;SDS011;48626;51.678;5.806;2022-08-01T12:18:11;5.22;;;2.88;;
62572;SDS011;48626;51.678;5.806;2022-08-01T12:20:41;6.47;;;2.30;;
62572;SDS011;48626;51.678;5.806;2022-08-01T12:23:10;4.18;;;2.20;;
62572;SDS011;48626;51.678;5.806;2022-08-01T12:25:37;6.90;;;2.43;;
62572;SDS011;48626;51.678;5.806;2022-08-01T12:28:09;4.20;;;2.03;;
62572;SDS011;48626;51.678;5.806;2022-08-01T12:30:36;4.45;;;2.40;;
62572;SDS011;48626;51.678;5.806;2022-08-01T12:33:09;4.43;;;2.30;;
62572;SDS011;48626;51.678;5.806;2022-08-01T12:35:36;5.45;;;2.30;;
62572;SDS011;48626;51.678;5.806;2022-08-01T12:38:23;7.22;;;2.30;;
62572;SDS011;48626;51.678;5.806;2022-08-01T12:40:49;4.28;;;2.05;;
62572;SDS011;48626;51.678;5.806;2022-08-01T12:43:16;4.07;;;2.15;;
62572;SDS011;48626;51.678;5.806;2022-08-01T12:45:44;5.30;;;2.40;;
62572;SDS011;48626;51.678;5.806;2022-08-01T12:48:12;6.57;;;2.40;;
62572;SDS011;48626;51.678;5.806;2022-08-01T12:50:41;5.93;;;2.30;;
62572;SDS011;48626;51.678;5.806;2022-08-01T12:53:12;4.05;;;2.30;;
62572;SDS011;48626;51.678;5.806;2022-08-01T12:55:58;4.00;;;2.17;;
62572;SDS011;48626;51.678;5.806;2022-08-01T12:58:27;4.40;;;2.08;;
62572;SDS011;48626;51.678;5.806;2022-08-01T13:01:03;6.25;;;2.50;;
62572;SDS011;48626;51.678;5.806;2022-08-01T13:03:33;5.50;;;2.42;;
62572;SDS011;48626;51.678;5.806;2022-08-01T13:05:59;5.82;;;2.45;;
62572;SDS011;48626;51.678;5.806;2022-08-01T13:13:37;5.32;;;2.30;;
62572;SDS011;48626;51.678;5.806;2022-08-01T13:16:13;5.50;;;2.50;;
62572;SDS011;48626;51.678;5.806;2022-08-01T13:18:51;3.55;;;2.40;;
62572;SDS011;48626;51.678;5.806;2022-08-01T13:21:18;5.80;;;2.50;;
62572;SDS011;48626;51.678;5.806;2022-08-01T13:29:12;5.82;;;3.03;;
62572;SDS011;48626;51.678;5.806;2022-08-01T13:31:42;5.20;;;2.83;;
62572;SDS011;48626;51.678;5.806;2022-08-01T13:34:08;8.23;;;3.08;;
62572;SDS011;48626;51.678;5.806;2022-08-01T13:36:35;6.82;;;3.22;;
62572;SDS011;48626;51.678;5.806;2022-08-01T13:39:01;7.22;;;3.38;;
62572;SDS011;48626;51.678;5.806;2022-08-01T13:41:46;6.82;;;3.63;;
62572;SDS011;48626;51.678;5.806;2022-08-01T13:44:12;7.22;;;3.05;;
62572;SDS011;48626;51.678;5.806;2022-08-01T13:46:38;5.90;;;2.85;;
62572;SDS011;48626;51.678;5.806;2022-08-01T13:49:05;7.78;;;3.17;;
62572;SDS011;48626;51.678;5.806;2022-08-01T13:51:32;7.80;;;3.08;;
62572;SDS011;48626;51.678;5.806;2022-08-01T13:53:58;7.70;;;3.03;;
62572;SDS011;48626;51.678;5.806;2022-08-01T13:56:23;7.82;;;3.20;;
62572;SDS011;48626;51.678;5.806;2022-08-01T13:58:50;8.57;;;2.72;;
62572;SDS011;48626;51.678;5.806;2022-08-01T14:01:15;9.10;;;2.83;;
62572;SDS011;48626;51.678;5.806;2022-08-01T14:03:41;7.40;;;2.70;;
62572;SDS011;48626;51.678;5.806;2022-08-01T14:06:07;9.45;;;2.95;;
62572;SDS011;48626;51.678;5.806;2022-08-01T14:08:32;12.25;;;3.28;;
62572;SDS011;48626;51.678;5.806;2022-08-01T14:10:58;9.40;;;2.95;;
62572;SDS011;48626;51.678;5.806;2022-08-01T14:13:24;6.90;;;3.00;;
62572;SDS011;48626;51.678;5.806;2022-08-01T14:15:51;10.00;;;2.83;;
62572;SDS011;48626;51.678;5.806;2022-08-01T14:18:17;7.93;;;2.95;;
62572;SDS011;48626;51.678;5.806;2022-08-01T14:20:43;8.70;;;3.28;;
62572;SDS011;48626;51.678;5.806;2022-08-01T14:23:10;14.82;;;8.93;;
62572;SDS011;48626;51.678;5.806;2022-08-01T14:25:36;7.50;;;3.95;;
62572;SDS011;48626;51.678;5.806;2022-08-01T14:28:03;7.65;;;2.75;;
62572;SDS011;48626;51.678;5.806;2022-08-01T14:30:28;6.43;;;2.60;;
62572;SDS011;48626;51.678;5.806;2022-08-01T14:32:54;6.68;;;2.70;;
62572;SDS011;48626;51.678;5.806;2022-08-01T14:35:20;7.13;;;3.03;;
62572;SDS011;48626;51.678;5.806;2022-08-01T14:37:45;9.40;;;2.90;;
62572;SDS011;48626;51.678;5.806;2022-08-01T14:40:11;7.68;;;3.03;;
62572;SDS011;48626;51.678;5.806;2022-08-01T14:42:38;6.18;;;2.92;;
62572;SDS011;48626;51.678;5.806;2022-08-01T14:45:04;9.65;;;3.30;;
62572;SDS011;48626;51.678;5.806;2022-08-01T14:47:37;9.70;;;3.08;;
62572;SDS011;48626;51.678;5.806;2022-08-01T14:50:05;6.57;;;2.40;;
62572;SDS011;48626;51.678;5.806;2022-08-01T14:52:33;7.38;;;2.80;;
62572;SDS011;48626;51.678;5.806;2022-08-01T14:55:00;7.63;;;2.70;;
62572;SDS011;48626;51.678;5.806;2022-08-01T14:57:26;7.68;;;2.80;;
62572;SDS011;48626;51.678;5.806;2022-08-01T14:59:52;9.98;;;2.80;;
62572;SDS011;48626;51.678;5.806;2022-08-01T15:02:17;8.77;;;2.67;;
62572;SDS011;48626;51.678;5.806;2022-08-01T15:04:44;8.35;;;2.83;;
62572;SDS011;48626;51.678;5.806;2022-08-01T15:07:10;6.78;;;2.85;;
62572;SDS011;48626;51.678;5.806;2022-08-01T15:09:36;8.52;;;2.67;;
62572;SDS011;48626;51.678;5.806;2022-08-01T15:12:02;8.35;;;2.70;;
62572;SDS011;48626;51.678;5.806;2022-08-01T15:14:28;10.75;;;2.80;;
62572;SDS011;48626;51.678;5.806;2022-08-01T15:17:12;6.00;;;2.28;;
62572;SDS011;48626;51.678;5.806;2022-08-01T15:19:38;11.43;;;2.92;;
62572;SDS011;48626;51.678;5.806;2022-08-01T15:22:04;6.40;;;2.75;;
62572;SDS011;48626;51.678;5.806;2022-08-01T15:24:30;10.07;;;2.90;;
62572;SDS011;48626;51.678;5.806;2022-08-01T15:26:56;9.57;;;2.90;;
62572;SDS011;48626;51.678;5.806;2022-08-01T15:29:22;6.57;;;2.72;;
62572;SDS011;48626;51.678;5.806;2022-08-01T15:31:48;11.32;;;2.95;;
62572;SDS011;48626;51.678;5.806;2022-08-01T15:34:14;8.30;;;2.85;;